Flight Track Log - Related Links

Times and Time Zones

All times are in EDT time to prevent confusion due to time zone crossing. See the N6245S flight status page for this flight to view local times or setup timezone preferences in your user account.

Time Position Orientation Groundspeed Altitude Reporting Facility
EDT Latitude Longitude Course Direction KTS MPH feet Rate Location/Type
Sat 10:34:44 AM 33.9500 -83.3500 340° North 97 112 1,400  Level Atlanta TRACON
Sat 10:35:44 AM 33.9667 -83.3833 301° West 101 116 2,200 800 Climbing Atlanta TRACON
Sat 10:36:44 AM 33.9833 -83.4167 301° West 101 116 3,000 700 Climbing Atlanta TRACON
Sat 10:37:44 AM 34.0000 -83.4333 320° Northwest 102 117 3,600 632 Climbing Atlanta TRACON
Sat 10:38:38 AM 34.0167 -83.4667 301° West 98 113 4,200 574 Climbing Atlanta TRACON
Sat 10:39:18 AM 34.0267 -83.4747 326° Northwest 100 115 4,500 540 Climbing Atlanta Center
Sat 10:40:00 AM 34.1472 -83.4083 340° North  Level FlightAware Approximate
Sat 10:40:18 AM 34.0456 -83.4997 312° West 100 115 5,100  Level Atlanta Center
Sat 10:41:18 AM 34.0603 -83.5272 303° West 100 115 5,700 550 Climbing Atlanta Center
Sat 10:42:18 AM 34.0772 -83.5522 309° West 100 115 6,200 550 Climbing Atlanta Center
Sat 10:43:18 AM 34.1022 -83.5847 313° West 107 123 6,800 500 Climbing Atlanta Center
Sat 10:44:18 AM 34.1211 -83.6097 312° West 107 123 7,200 450 Climbing Atlanta Center
Sat 10:45:18 AM 34.1400 -83.6372 310° West 107 123 7,700 400 Climbing Atlanta Center
Sat 10:46:18 AM 34.1589 -83.6647 310° West 107 123 8,000 200 Climbing Atlanta Center
Sat 10:47:18 AM 34.1819 -83.6972 311° West 112 129 8,100 50 Climbing Atlanta Center
Sat 10:48:18 AM 34.2031 -83.7375 302° West 122 140 8,100  Level Atlanta Center
Sat 10:49:18 AM 34.2261 -83.7725 309° West 128 147 8,100  Level Atlanta Center
Sat 10:50:18 AM 34.2469 -83.8050 308° West 137 158 8,100  Level Atlanta Center
Sat 10:51:18 AM 34.2658 -83.8453 300° West 137 158 8,100  Level Atlanta Center
Sat 10:52:18 AM 34.2867 -83.8831 304° West 137 158 8,100 -50 Level Atlanta Center
Sat 10:53:18 AM 34.3014 -83.9256 293° West 137 158 8,000 -50 Descending Atlanta Center
Sat 10:54:18 AM 34.3203 -83.9658 300° West 137 158 8,000  Level Atlanta Center
Sat 10:55:18 AM 34.3369 -84.0061 297° West 137 158 8,000 50 Level Atlanta Center
Sat 10:56:18 AM 34.3556 -84.0439 301° West 137 158 8,100 50 Climbing Atlanta Center
Sat 10:57:18 AM 34.3703 -84.0842 294° West 137 158 8,100  Level Atlanta Center
Sat 10:58:18 AM 34.3892 -84.1319 296° West 137 158 8,100  Level Atlanta Center
Sat 10:59:18 AM 34.4036 -84.1722 294° West 137 158 8,100  Level Atlanta Center
Sat 11:00:18 AM 34.4203 -84.2125 297° West 137 158 8,100 -50 Level Atlanta Center
Sat 11:01:18 AM 34.4411 -84.2528 302° West 137 158 8,000 -50 Descending Atlanta Center
Sat 11:02:18 AM 34.4556 -84.2933 293° West 137 158 8,000  Level Atlanta Center
Sat 11:03:18 AM 34.4700 -84.3336 294° West 137 158 8,000  Level Atlanta Center
Sat 11:04:18 AM 34.4867 -84.3764 295° West 132 152 8,000 100 Level Atlanta Center
Sat 11:05:18 AM 34.4969 -84.4169 287° West 132 152 8,200  Climbing Atlanta Center
Sat 11:06:18 AM 34.4822 -84.4544 245° Southwest 125 144 8,000 -100 Descending Atlanta Center
Sat 11:07:18 AM 34.4614 -84.4922 236° Southwest 132 152 8,000 50 Level Atlanta Center
Sat 11:08:18 AM 34.4425 -84.5275 237° Southwest 138 159 8,100 50 Climbing Atlanta Center
Sat 11:09:18 AM 34.4275 -84.5625 243° Southwest 138 159 8,100  Level Atlanta Center
Sat 11:10:18 AM 34.4086 -84.6003 239° Southwest 138 159 8,100  Level Atlanta Center
Sat 11:11:18 AM 34.3897 -84.6406 240° Southwest 133 153 8,100  Level Atlanta Center
Sat 11:12:18 AM 34.3728 -84.6781 241° Southwest 138 159 8,100  Level Atlanta Center
Sat 11:13:18 AM 34.3558 -84.7181 243° Southwest 138 159 8,100  Level Atlanta Center
Sat 11:14:18 AM 34.3389 -84.7558 241° Southwest 138 159 8,100  Level Atlanta Center
Sat 11:15:18 AM 34.3200 -84.7983 242° Southwest 138 159 8,100  Level Atlanta Center
Sat 11:16:18 AM 34.3031 -84.8358 241° Southwest 138 159 8,100  Level Atlanta Center
Sat 11:17:18 AM 34.2819 -84.8786 239° Southwest 138 159 8,100  Level Atlanta Center
Sat 11:18:18 AM 34.2628 -84.9186 240° Southwest 138 159 8,100  Level Atlanta Center
Sat 11:19:18 AM 34.2458 -84.9586 243° Southwest 138 159 8,100 -50 Level Atlanta Center
Sat 11:20:18 AM 34.2267 -84.9986 240° Southwest 138 159 8,000  Descending Atlanta Center
Sat 11:21:18 AM 34.2078 -85.0358 238° Southwest 138 159 8,100 50 Climbing Atlanta Center
Sat 11:22:18 AM 34.1906 -85.0758 243° Southwest 138 159 8,100 -50 Level Atlanta Center
Sat 11:23:18 AM 34.1714 -85.1158 240° Southwest 138 159 8,000  Descending Atlanta Center
Sat 11:24:18 AM 34.1669 -85.1586 263° West 131 151 8,100 50 Climbing Atlanta Center
Sat 11:25:18 AM 34.1603 -85.2011 259° West 131 151 8,100  Level Atlanta Center
Sat 11:26:18 AM 34.1597 -85.2489 269° West 131 151 8,100  Level Atlanta Center
Sat 11:27:18 AM 34.1636 -85.2942 276° West 131 151 8,100  Level Atlanta Center
Sat 11:28:18 AM 34.1694 -85.3369 279° West 144 166 8,100 50 Level Atlanta Center
Sat 11:29:18 AM 34.1731 -85.3819 276° West 144 166 8,200  Climbing Atlanta Center
Sat 11:30:18 AM 34.1747 -85.4297 272° West 139 160 8,100 -100 Descending Atlanta Center
Sat 11:31:18 AM 34.1719 -85.4750 266° West 139 160 8,000 -50 Descending Atlanta Center
Sat 11:32:18 AM 34.1714 -85.5175 269° West 139 160 8,000 50 Level Atlanta Center
Sat 11:33:18 AM 34.1753 -85.5628 276° West 139 160 8,100 50 Climbing Atlanta Center
Sat 11:34:18 AM 34.1706 -85.6031 262° West 134 154 8,100  Level Atlanta Center
Sat 11:35:18 AM 34.1739 -85.6508 275° West 134 154 8,100  Level Atlanta Center
Sat 11:36:18 AM 34.1775 -85.6933 276° West 129 148 8,100  Level Atlanta Center
Sat 11:37:18 AM 34.1792 -85.7336 273° West 124 143 8,100  Level Atlanta Center
Sat 11:38:18 AM 34.1806 -85.7764 272° West 124 143 8,100 50 Level Atlanta Center
Sat 11:39:18 AM 34.1781 -85.8192 266° West 124 143 8,200 50 Climbing Atlanta Center
Sat 11:40:18 AM 34.1836 -85.8619 279° West 124 143 8,200 -50 Level Atlanta Center
Sat 11:41:18 AM 34.1914 -85.9047 282° West 124 143 8,100 -50 Descending Atlanta Center
Sat 11:42:18 AM 34.1803 -85.9497 253° West 124 143 8,100  Level Atlanta Center
Sat 11:43:18 AM 34.1817 -85.9900 272° West 124 143 8,100  Level Atlanta Center
Sat 11:44:18 AM 34.1767 -86.0350 262° West 124 143 8,100  Level Atlanta Center
Sat 11:45:18 AM 34.1844 -86.0753 283° West 124 143 8,100  Level Atlanta Center
Sat 11:46:18 AM 34.1900 -86.1206 278° West 124 143 8,100  Level Atlanta Center
Sat 11:47:18 AM 34.1892 -86.1658 269° West 129 148 8,100  Level Atlanta Center
Sat 11:48:18 AM 34.1883 -86.2086 269° West 129 148 8,100  Level Atlanta Center
Sat 11:49:18 AM 34.1919 -86.2514 276° West 129 148 8,100 -50 Level Atlanta Center
Sat 11:50:18 AM 34.1911 -86.2939 269° West 129 148 8,000  Descending Atlanta Center
Sat 11:51:18 AM 34.1903 -86.3392 269° West 129 148 8,100 Climbing Atlanta Center
Sat 11:53:00 AM 34.1876 -86.4152 268° West  Level FlightAware Approximate
Sat 12:00:00 PM 34.1836 -86.7291 270° West  Level FlightAware Approximate
Sat 12:01:00 PM 34.1836 -86.7738 270° West  Level FlightAware Approximate
Sat 12:02:00 PM 34.1836 -86.8186 270° West  Level FlightAware Approximate
Sat 12:02:18 PM 34.1389 -86.8044 270° West 134 154 8,100  Level Atlanta Center
Sat 12:03:00 PM 34.1836 -86.8634 270° West  Level FlightAware Approximate
Sat 12:03:43 PM 34.1147 -86.8639 244° Southwest 134 154 8,100  Level Atlanta Center
Sat 12:04:00 PM 34.1836 -86.9082 270° West  Level FlightAware Approximate
Sat 12:04:44 PM 34.0969 -86.9011 240° Southwest 135 155 8,100  Level Atlanta Center
Sat 12:05:00 PM 34.1836 -86.9529 270° West  Level FlightAware Approximate
Sat 12:05:44 PM 34.0753 -86.9406 236° Southwest 133 153 8,200  Level Atlanta Center
Sat 12:06:45 PM 34.0556 -86.9775 237° Southwest 137 158 8,100 -50 Descending Atlanta Center
Sat 12:07:45 PM 34.0339 -87.0142 235° Southwest 138 159 8,100  Level Atlanta Center
Sat 12:08:46 PM 34.0142 -87.0536 239° Southwest 136 157 8,100 -49 Level Atlanta Center
Sat 12:09:47 PM 33.9964 -87.0931 241° Southwest 136 157 8,000 -47 Descending Atlanta Center
Sat 12:10:53 PM 33.9786 -87.1400 245° Southwest 134 154 8,000 47 Level Atlanta Center
Sat 12:11:54 PM 33.9567 -87.1794 236° Southwest 135 155 8,100 49 Climbing Atlanta Center
Sat 12:12:55 PM 33.9369 -87.2186 239° Southwest 135 155 8,100  Level Atlanta Center
Sat 12:13:55 PM 33.9233 -87.2581 247° West 136 157 8,100  Level Atlanta Center
Sat 12:14:56 PM 33.9097 -87.2978 248° West 134 154 8,100  Level Atlanta Center
Sat 12:16:08 PM 33.8858 -87.3472 240° Southwest 141 162 8,100  Level Memphis Center
Sat 12:17:08 PM 33.8636 -87.3828 233° Southwest 141 162 8,100  Level Memphis Center
Sat 12:18:08 PM 33.8417 -87.4211 235° Southwest 146 168 8,100 -50 Level Memphis Center
Sat 12:19:08 PM 33.8194 -87.4619 237° Southwest 146 168 8,000 -50 Descending Memphis Center
Sat 12:20:08 PM 33.8017 -87.5025 242° Southwest 146 168 8,000  Level Memphis Center
Sat 12:21:08 PM 33.7839 -87.5431 242° Southwest 146 168 8,000  Level Memphis Center
Sat 12:22:08 PM 33.7639 -87.5836 239° Southwest 146 168 8,000  Level Memphis Center
Sat 12:23:08 PM 33.7439 -87.6192 236° Southwest 146 168 8,000 50 Level Memphis Center
Sat 12:24:08 PM 33.7239 -87.6575 238° Southwest 146 168 8,100 50 Climbing Memphis Center
Sat 12:25:08 PM 33.7039 -87.6956 238° Southwest 146 168 8,100  Level Memphis Center
Sat 12:26:08 PM 33.6858 -87.7358 242° Southwest 146 168 8,100  Level Memphis Center
Sat 12:27:08 PM 33.6678 -87.7739 240° Southwest 146 168 8,100  Level Memphis Center
Sat 12:28:08 PM 33.6478 -87.8144 239° Southwest 146 168 8,100 -50 Level Memphis Center
Sat 12:29:08 PM 33.6278 -87.8525 238° Southwest 146 168 8,000 -50 Descending Memphis Center
Sat 12:30:08 PM 33.6075 -87.8906 237° Southwest 146 168 8,000  Level Memphis Center
Sat 12:31:08 PM 33.5894 -87.9283 240° Southwest 146 168 8,000 50 Level Memphis Center
Sat 12:32:08 PM 33.5694 -87.9664 238° Southwest 146 168 8,100 50 Climbing Memphis Center
Sat 12:33:08 PM 33.5492 -88.0042 237° Southwest 146 168 8,100  Level Memphis Center
Sat 12:34:08 PM 33.5311 -88.0447 242° Southwest 146 168 8,100  Level Memphis Center
Sat 12:35:08 PM 33.5111 -88.0800 236° Southwest 146 168 8,100  Level Memphis Center
Sat 12:36:08 PM 33.4908 -88.1178 237° Southwest 146 168 8,100  Level Memphis Center
Sat 12:37:08 PM 33.4686 -88.1558 235° Southwest 146 168 8,100 -50 Level Memphis Center
Sat 12:38:08 PM 33.4525 -88.1986 246° West 146 168 8,000 -50 Descending Memphis Center
Sat 12:39:08 PM 33.4364 -88.2339 241° Southwest 146 168 8,000 50 Level Memphis Center
Sat 12:40:08 PM 33.4164 -88.2717 238° Southwest 146 168 8,100 50 Climbing Memphis Center
Sat 12:41:08 PM 33.3961 -88.3069 235° Southwest 146 168 8,100  Level Memphis Center
Sat 12:42:08 PM 33.3800 -88.3447 243° Southwest 146 168 8,100  Level Memphis Center
Sat 12:43:08 PM 33.3575 -88.3825 235° Southwest 141 162 8,100  Level Memphis Center
Sat 12:44:08 PM 33.3394 -88.4228 242° Southwest 141 162 8,100 -100 Level Memphis Center
Sat 12:45:08 PM 33.3150 -88.4606 232° Southwest 141 162 7,900 -300 Descending Memphis Center
Sat 12:46:08 PM 33.2925 -88.5008 236° Southwest 147 169 7,500 -550 Descending Memphis Center
Sat 12:47:08 PM 33.2744 -88.5383 240° Southwest 147 169 6,800 -550 Descending Memphis Center
Sat 12:48:08 PM 33.2583 -88.5808 246° West 147 169 6,400 -350 Descending Memphis Center
Sat 12:49:08 PM 33.2358 -88.6136 231° Southwest 141 162 6,100 -150 Descending Memphis Center
Sat 12:50:08 PM 33.2175 -88.6489 238° Southwest 141 162 6,100 -50 Level Memphis Center
Sat 12:51:08 PM 33.1992 -88.6864 240° Southwest 136 157 6,000  Descending Memphis Center
Sat 12:52:08 PM 33.1789 -88.7242 237° Southwest 136 157 6,100  Climbing Memphis Center
Sat 12:53:08 PM 33.1606 -88.7617 240° Southwest 136 157 6,000 -100 Descending Memphis Center
Sat 12:54:08 PM 33.1400 -88.7967 235° Southwest 136 157 5,900  Descending Memphis Center
Sat 12:55:08 PM 33.1219 -88.8367 242° Southwest 136 157 6,000  Climbing Memphis Center
Sat 12:56:08 PM 33.1033 -88.8717 238° Southwest 136 157 5,900  Descending Memphis Center
Sat 12:57:08 PM 33.0850 -88.9067 238° Southwest 136 157 6,000 50 Climbing Memphis Center
Sat 12:58:08 PM 33.0667 -88.9467 241° Southwest 136 157 6,000  Level Memphis Center
Sat 12:59:08 PM 33.0442 -88.9794 231° Southwest 136 157 6,000 50 Level Memphis Center
Sat 01:00:08 PM 33.0258 -89.0119 236° Southwest 136 157 6,100 50 Climbing Memphis Center
Sat 01:01:08 PM 33.0031 -89.0494 234° Southwest 136 157 6,100  Level Memphis Center
Sat 01:02:08 PM 32.9847 -89.0867 240° Southwest 136 157 6,100  Level Memphis Center
Sat 01:03:08 PM 32.9706 -89.1242 246° West 136 157 6,100  Level Memphis Center
Sat 01:04:08 PM 32.9519 -89.1567 236° Southwest 136 157 6,100  Level Memphis Center
Sat 01:05:08 PM 32.9317 -89.1939 237° Southwest 136 157 6,100 -50 Level Memphis Center
Sat 01:06:08 PM 32.9131 -89.2314 239° Southwest 136 157 6,000 -50 Descending Memphis Center
Sat 01:07:08 PM 32.8947 -89.2686 240° Southwest 136 157 6,000 50 Level Memphis Center
Sat 01:08:08 PM 32.8761 -89.3036 238° Southwest 136 157 6,100 -50 Climbing Memphis Center
Sat 01:09:08 PM 32.8597 -89.3408 242° Southwest 136 157 5,900 -50 Descending Memphis Center
Sat 01:10:08 PM 32.8392 -89.3731 233° Southwest 136 157 6,000 50 Climbing Memphis Center
Sat 01:11:08 PM 32.8206 -89.4081 238° Southwest 131 151 6,000 -50 Level Memphis Center
Sat 01:12:08 PM 32.7981 -89.4403 230° Southwest 131 151 5,900  Descending Memphis Center
Sat 01:13:08 PM 32.7711 -89.4678 221° Southwest 131 151 6,000 50 Climbing Memphis Center
Sat 01:14:08 PM 32.7442 -89.4928 218° Southwest 131 151 6,000 50 Level Memphis Center
Sat 01:15:08 PM 32.7192 -89.5228 225° Southwest 131 151 6,100 50 Climbing Memphis Center
Sat 01:16:08 PM 32.6944 -89.5525 225° Southwest 131 151 6,100 -50 Level Memphis Center
Sat 01:17:08 PM 32.6717 -89.5822 228° Southwest 131 151 6,000 -50 Descending Memphis Center
Sat 01:18:08 PM 32.6614 -89.6194 252° West 126 145 6,000 -150 Level Memphis Center
Sat 01:19:08 PM 32.6533 -89.6614 257° West 126 145 5,700 -400 Descending Memphis Center
Sat 01:20:08 PM 32.6431 -89.7036 254° West 131 151 5,200 -450 Descending Memphis Center
Sat 01:21:08 PM 32.6369 -89.7481 261° West 131 151 4,800 -450 Descending Memphis Center
Sat 01:22:08 PM 32.6289 -89.7900 257° West 131 151 4,300 -550 Descending Memphis Center
Sat 01:23:08 PM 32.6228 -89.8344 261° West 136 157 3,700 -550 Descending Memphis Center
Sat 01:24:08 PM 32.6189 -89.8789 264° West 141 162 3,200 -550 Descending Memphis Center
Sat 01:25:08 PM 32.6128 -89.9233 261° West 141 162 2,600 -550 Descending Memphis Center
Sat 01:26:08 PM 32.6086 -89.9653 263° West 141 162 2,100 -250 Descending Memphis Center
Sat 01:27:08 PM 32.6067 -90.0022 266° West 136 157 2,100 -50 Level Memphis Center
Sat 01:28:08 PM 32.6006 -90.0392 259° West 126 145 2,000 -50 Descending Memphis Center
Sat 01:29:08 PM 32.5922 -90.0786 256° West 126 145 2,000 50 Level Memphis Center
Sat 01:30:08 PM 32.5819 -90.1133 251° West 126 145 2,100  Climbing Memphis Center
Sat 01:31:08 PM 32.5506 -90.1158 184° South 100 115 2,000 -150 Descending Memphis Center
Sat 01:32:08 PM 32.5192 -90.1108 172° South 100 115 1,800 -200 Descending Memphis Center
Sat 01:34:00 PM 32.4514 -90.1023 174° South  Level FlightAware Approximate
Sat 01:41:00 PM 32.4333 -90.1000 180° South  Level FlightAware Approximate

Login

Don't have an account? Register now (free) for customized features, flight alerts, and more!